Time;durP1;ratioP1;P1;durP2;ratioP2;P2;SDS_P1;SDS_P2;PMS_P1;PMS_P2;Temp;Humidity;BMP_temperature;BMP_pressure;BME280_temperature;BME280_humidity;BME280_pressure;Samples;Min_cycle;Max_cycle;Signal;HPM_P1;HPM_P2
2022/12/27 00:01:57;;;;;;;;;;;;;;;;;;7360928;19;20611;-77
2022/12/27 00:04:23;;;;;;;;;;;;;;;;;;7369916;19;19923;-79
2022/12/27 00:06:48;;;;;;;;;;;;;;;;;;7364432;19;19915;-81
2022/12/27 00:09:13;;;;;;;;;;;;;;;;;;7360872;19;19923;-81
2022/12/27 00:11:38;;;;;;;;;;;;;;;;;;7369081;19;19922;-81
2022/12/27 00:14:03;;;;;;;;;;;;;;;;;;7368030;19;20537;-80
2022/12/27 00:16:28;;;;;;;;;;;;;;;;;;7369118;19;19929;-80
2022/12/27 00:18:53;;;;;;;;;;;;;;;;;;7368908;19;19926;-78
2022/12/27 00:21:18;;;;;;;;;;;;;;;;;;7369276;19;19930;-78
2022/12/27 00:23:43;;;;;;;;;;;;;;;;;;7369018;19;19919;-79
2022/12/27 00:26:08;;;;;;;;;;;;;;;;;;7368920;19;19934;-77
2022/12/27 00:28:33;;;;;;;;;;;;;;;;;;7368387;19;19919;-81
2022/12/27 00:30:58;;;;;;;;;;;;;;;;;;7368443;19;20184;-77
2022/12/27 00:33:24;;;;;;;;;;;;;;;;;;7358134;19;19930;-78
2022/12/27 00:35:49;;;;;;;;;;;;;;;;;;7365548;19;19930;-78
2022/12/27 00:38:14;;;;;;;;;;;;;;;;;;7368855;19;20287;-79
2022/12/27 00:40:39;;;;;;;;;;;;;;;;;;7369787;19;19922;-82
2022/12/27 00:43:04;;;;;;;;;;;;;;;;;;7371760;19;19919;-78
2022/12/27 00:45:29;;;;;;;;;;;;;;;;;;7365615;19;19923;-78
2022/12/27 00:47:54;;;;;;;;;;;;;;;;;;7367074;19;20358;-78
2022/12/27 00:50:19;;;;;;;;;;;;;;;;;;7370886;19;19919;-79
2022/12/27 00:52:44;;;;;;;;;;;;;;;;;;7364983;19;19925;-82
2022/12/27 00:55:10;;;;;;;;;;;;;;;;;;7371946;19;19918;-77
2022/12/27 00:57:35;;;;;;;;;;;;;;;;;;7371729;19;20539;-77
2022/12/27 01:00:00;;;;;;;;;;;;;;;;;;7364123;19;19926;-81
2022/12/27 01:02:27;;;;;;;;;;;;;;;;;;7370191;19;19911;-77
2022/12/27 01:04:53;;;;;;;;;;;;;;;;;;7365695;19;20458;-80
2022/12/27 01:07:19;;;;;;;;;;;;;;;;;;7363949;19;19926;-81
2022/12/27 01:09:44;;;;;;;;;;;;;;;;;;7365253;19;20415;-78
2022/12/27 01:12:09;;;;;;;;;;;;;;;;;;7338925;19;19931;-79
2022/12/27 01:14:34;;;;;;;;;;;;;;;;;;7366941;19;19919;-81
2022/12/27 01:16:59;;;;;;;;;;;;;;;;;;7367227;19;19915;-81
2022/12/27 01:19:24;;;;;;;;;;;;;;;;;;7366627;19;19919;-77
2022/12/27 01:21:49;;;;;;;;;;;;;;;;;;7364687;19;19930;-78
2022/12/27 01:24:14;;;;;;;;;;;;;;;;;;7372213;19;19922;-78
2022/12/27 01:26:40;;;;;;;;;;;;;;;;;;7364285;19;20347;-77
2022/12/27 01:29:05;;;;;;;;;;;;;;;;;;7356704;19;19927;-80
2022/12/27 01:31:30;;;;;;;;;;;;;;;;;;7370089;19;19922;-82
2022/12/27 01:33:55;;;;;;;;;;;;;;;;;;7364323;19;19960;-78
2022/12/27 01:36:20;;;;;;;;;;;;;;;;;;7369338;19;19944;-81
2022/12/27 01:38:46;;;;;;;;;;;;;;;;;;7355869;19;19918;-79
2022/12/27 01:42:50;;;;;;;;;;;;;;;;;;7359559;19;19910;-78
2022/12/27 01:43:57;;;;;;;;;;;;;;;;;;7366992;19;19915;-77
2022/12/27 01:46:22;;;;;;;;;;;;;;;;;;7364165;19;19950;-78
2022/12/27 01:48:47;;;;;;;;;;;;;;;;;;7365650;19;19918;-78
2022/12/27 01:51:12;;;;;;;;;;;;;;;;;;7360742;19;19911;-78
2022/12/27 01:53:37;;;;;;;;;;;;;;;;;;7369650;19;19934;-78
2022/12/27 01:56:02;;;;;;;;;;;;;;;;;;7357982;19;19921;-77
2022/12/27 01:58:27;;;;;;;;;;;;;;;;;;7361913;19;20363;-78
2022/12/27 02:00:52;;;;;;;;;;;;;;;;;;7362710;19;19922;-81
2022/12/27 02:03:17;;;;;;;;;;;;;;;;;;7367229;19;19918;-80
2022/12/27 02:05:42;;;;;;;;;;;;;;;;;;7361305;19;19946;-80
2022/12/27 02:08:08;;;;;;;;;;;;;;;;;;7357645;19;20284;-79
2022/12/27 02:10:33;;;;;;;;;;;;;;;;;;7364342;19;20415;-78
2022/12/27 02:12:58;;;;;;;;;;;;;;;;;;7261273;19;20623;-81
2022/12/27 02:15:23;;;;;;;;;;;;;;;;;;7254113;19;20133;-81
2022/12/27 02:17:48;;;;;;;;;;;;;;;;;;7245222;19;20550;-81
2022/12/27 02:20:13;;;;;;;;;;;;;;;;;;7248890;19;19919;-81
2022/12/27 02:25:22;;;;;;;;;;;;;;;;;;7258357;19;20301;-81
2022/12/27 02:27:47;;;;;;;;;;;;;;;;;;7248197;19;19919;-81
2022/12/27 02:30:12;;;;;;;;;;;;;;;;;;7261939;19;20266;-82
2022/12/27 02:32:38;;;;;;;;;;;;;;;;;;7256318;19;19919;-82
2022/12/27 02:35:03;;;;;;;;;;;;;;;;;;7263522;19;20419;-81
2022/12/27 02:37:28;;;;;;;;;;;;;;;;;;7257586;19;20328;-80
2022/12/27 02:39:53;;;;;;;;;;;;;;;;;;7255183;19;19919;-82
2022/12/27 02:53:17;;;;;;;;;;;;;;;;;;7266125;19;20789;-81
2022/12/27 02:57:07;;;;;;;;;;;;;;;;;;7264723;19;19922;-82
2022/12/27 02:58:27;;;;;;;;;;;;;;;;;;7276013;19;19915;-81
2022/12/27 03:03:36;;;;;;;;;;;;;;;;;;7266601;19;19930;-82
2022/12/27 03:08:45;;;;;;;;;;;;;;;;;;7263899;19;19935;-80
2022/12/27 03:16:40;;;;;;;;;;;;;;;;;;7370702;19;20030;-78
2022/12/27 03:19:05;;;;;;;;;;;;;;;;;;7371461;19;20339;-77
2022/12/27 03:26:58;;;;;;;;;;;;;;;;;;7341884;19;19922;-81
2022/12/27 03:34:51;;;;;;;;;;;;;;;;;;7375637;19;19939;-80
2022/12/27 03:39:59;;;;;;;;;;;;;;;;;;7361861;19;20479;-81
2022/12/27 03:45:08;;;;;;;;;;;;;;;;;;7368214;19;19940;-79
2022/12/27 03:47:33;;;;;;;;;;;;;;;;;;7367223;19;19927;-78
2022/12/27 03:49:58;;;;;;;;;;;;;;;;;;7364042;19;19954;-79
2022/12/27 03:52:23;;;;;;;;;;;;;;;;;;7355826;19;19922;-78
2022/12/27 03:54:49;;;;;;;;;;;;;;;;;;7373986;19;19926;-82
2022/12/27 03:57:14;;;;;;;;;;;;;;;;;;7362897;19;19926;-77
2022/12/27 03:59:39;;;;;;;;;;;;;;;;;;7371929;19;19934;-78
2022/12/27 04:02:04;;;;;;;;;;;;;;;;;;7370111;19;19921;-77
2022/12/27 04:04:29;;;;;;;;;;;;;;;;;;7370646;19;20343;-79
2022/12/27 04:06:54;;;;;;;;;;;;;;;;;;7362388;19;19915;-78
2022/12/27 04:36:39;;;;;;;;;;;;;;;;;;7362914;19;20259;-78
2022/12/27 04:39:04;;;;;;;;;;;;;;;;;;7367186;19;20315;-81
2022/12/27 04:55:09;;;;;;;;;;;;;;;;;;7366509;19;20487;-79
2022/12/27 04:57:34;;;;;;;;;;;;;;;;;;7365583;19;20427;-79
2022/12/27 05:02:43;;;;;;;;;;;;;;;;;;7366557;19;19926;-78
2022/12/27 05:05:08;;;;;;;;;;;;;;;;;;7357996;19;19919;-79
2022/12/27 05:15:45;;;;;;;;;;;;;;;;;;7370587;19;20327;-78
2022/12/27 05:18:10;;;;;;;;;;;;;;;;;;7364936;19;20340;-78
2022/12/27 05:20:36;;;;;;;;;;;;;;;;;;7362748;19;19922;-78
2022/12/27 05:25:45;;;;;;;;;;;;;;;;;;7367701;19;19913;-81
2022/12/27 05:28:10;;;;;;;;;;;;;;;;;;7362564;19;20022;-78
2022/12/27 05:30:35;;;;;;;;;;;;;;;;;;7369637;19;19990;-78
2022/12/27 05:33:01;;;;;;;;;;;;;;;;;;7371823;19;19919;-80
2022/12/27 05:35:26;;;;;;;;;;;;;;;;;;7359637;19;20285;-78
2022/12/27 05:37:51;;;;;;;;;;;;;;;;;;7369550;19;19922;-78
2022/12/27 05:40:16;;;;;;;;;;;;;;;;;;7364608;19;19919;-79
2022/12/27 05:42:41;;;;;;;;;;;;;;;;;;7362543;19;19943;-78
2022/12/27 05:45:06;;;;;;;;;;;;;;;;;;7363027;19;20005;-78
2022/12/27 05:47:31;;;;;;;;;;;;;;;;;;7369860;19;19918;-78
2022/12/27 05:49:56;;;;;;;;;;;;;;;;;;7365281;19;20348;-78
2022/12/27 05:52:21;;;;;;;;;;;;;;;;;;7362248;19;20198;-81
2022/12/27 05:54:46;;;;;;;;;;;;;;;;;;7366102;19;20458;-81
2022/12/27 05:57:12;;;;;;;;;;;;;;;;;;7357878;19;19930;-81
2022/12/27 05:59:37;;;;;;;;;;;;;;;;;;7369831;19;19918;-78
2022/12/27 06:02:02;;;;;;;;;;;;;;;;;;7363325;19;19922;-77
2022/12/27 06:04:27;;;;;;;;;;;;;;;;;;7366959;19;19919;-78
2022/12/27 06:06:52;;;;;;;;;;;;;;;;;;7357336;19;20131;-78
2022/12/27 06:09:17;;;;;;;;;;;;;;;;;;7358502;19;19919;-81
2022/12/27 06:11:42;;;;;;;;;;;;;;;;;;7362698;19;19915;-77
2022/12/27 06:14:07;;;;;;;;;;;;;;;;;;7367809;19;19922;-81
2022/12/27 06:16:32;;;;;;;;;;;;;;;;;;7358104;19;19915;-78
2022/12/27 06:18:57;;;;;;;;;;;;;;;;;;7367006;19;20008;-80
2022/12/27 06:21:23;;;;;;;;;;;;;;;;;;7361516;19;19922;-77
2022/12/27 06:23:48;;;;;;;;;;;;;;;;;;7366416;19;19919;-78
2022/12/27 06:26:13;;;;;;;;;;;;;;;;;;7344199;19;20316;-81
2022/12/27 06:28:38;;;;;;;;;;;;;;;;;;7362455;19;19922;-79
2022/12/27 06:31:03;;;;;;;;;;;;;;;;;;7354447;19;20629;-78
2022/12/27 06:33:28;;;;;;;;;;;;;;;;;;7371869;19;20632;-78
2022/12/27 06:35:53;;;;;;;;;;;;;;;;;;7354735;19;19934;-78
2022/12/27 06:38:18;;;;;;;;;;;;;;;;;;7342230;19;19978;-81
2022/12/27 06:40:43;;;;;;;;;;;;;;;;;;7362636;19;19919;-79
2022/12/27 06:43:09;;;;;;;;;;;;;;;;;;7371487;19;19915;-82
2022/12/27 06:45:34;;;;;;;;;;;;;;;;;;7354682;19;20238;-79
2022/12/27 06:47:59;;;;;;;;;;;;;;;;;;7356849;19;19986;-81
2022/12/27 06:50:24;;;;;;;;;;;;;;;;;;7362460;19;19919;-80
2022/12/27 06:52:49;;;;;;;;;;;;;;;;;;7372597;19;19923;-78
2022/12/27 06:55:14;;;;;;;;;;;;;;;;;;7366606;19;19923;-81
2022/12/27 06:57:39;;;;;;;;;;;;;;;;;;7366540;19;20755;-78
2022/12/27 07:00:04;;;;;;;;;;;;;;;;;;7373067;19;19972;-79
2022/12/27 07:02:29;;;;;;;;;;;;;;;;;;7363538;19;19974;-81
2022/12/27 07:04:54;;;;;;;;;;;;;;;;;;7371567;19;20323;-77
2022/12/27 07:07:20;;;;;;;;;;;;;;;;;;7360906;19;19919;-77
2022/12/27 07:09:45;;;;;;;;;;;;;;;;;;7374575;19;19933;-80
2022/12/27 07:12:10;;;;;;;;;;;;;;;;;;7360492;19;19923;-81
2022/12/27 07:14:35;;;;;;;;;;;;;;;;;;7362547;19;20582;-78
2022/12/27 07:17:00;;;;;;;;;;;;;;;;;;7364256;19;19930;-80
2022/12/27 07:19:25;;;;;;;;;;;;;;;;;;7368706;19;19923;-77
2022/12/27 07:21:50;;;;;;;;;;;;;;;;;;7368512;19;19919;-79
2022/12/27 07:24:15;;;;;;;;;;;;;;;;;;7361229;19;19911;-81
2022/12/27 07:26:40;;;;;;;;;;;;;;;;;;7367242;19;19923;-77
2022/12/27 07:29:05;;;;;;;;;;;;;;;;;;7372067;19;19935;-78
2022/12/27 07:31:30;;;;;;;;;;;;;;;;;;7366873;19;20231;-80
2022/12/27 07:33:56;;;;;;;;;;;;;;;;;;7373909;19;20362;-77
2022/12/27 07:36:21;;;;;;;;;;;;;;;;;;7369677;19;19922;-77
2022/12/27 07:38:46;;;;;;;;;;;;;;;;;;7371316;19;19926;-79
2022/12/27 07:41:11;;;;;;;;;;;;;;;;;;7357609;19;19930;-82
2022/12/27 07:43:36;;;;;;;;;;;;;;;;;;7367249;19;20722;-79
2022/12/27 07:46:01;;;;;;;;;;;;;;;;;;7370729;19;19956;-80
2022/12/27 07:48:26;;;;;;;;;;;;;;;;;;7356929;19;19931;-78
2022/12/27 07:50:51;;;;;;;;;;;;;;;;;;7370711;19;19925;-80
2022/12/27 07:53:16;;;;;;;;;;;;;;;;;;7362202;19;19922;-81
2022/12/27 07:55:41;;;;;;;;;;;;;;;;;;7367494;19;20988;-79
2022/12/27 07:58:07;;;;;;;;;;;;;;;;;;7354494;19;19914;-77
2022/12/27 08:00:32;;;;;;;;;;;;;;;;;;7363303;19;19935;-77
2022/12/27 08:02:57;;;;;;;;;;;;;;;;;;7363381;19;19936;-78
2022/12/27 08:05:22;;;;;;;;;;;;;;;;;;7367488;19;20010;-79
2022/12/27 08:07:47;;;;;;;;;;;;;;;;;;7366125;19;19919;-79
2022/12/27 08:10:12;;;;;;;;;;;;;;;;;;7363815;19;20119;-81
2022/12/27 08:12:37;;;;;;;;;;;;;;;;;;7330708;19;20396;-81
2022/12/27 08:15:03;;;;;;;;;;;;;;;;;;7338513;19;19919;-78
2022/12/27 08:17:28;;;;;;;;;;;;;;;;;;7365594;19;20343;-78
2022/12/27 08:19:53;;;;;;;;;;;;;;;;;;7356184;19;19926;-78
2022/12/27 08:22:18;;;;;;;;;;;;;;;;;;7367043;19;20001;-80
2022/12/27 08:24:43;;;;;;;;;;;;;;;;;;7366519;19;20345;-78
2022/12/27 08:27:08;;;;;;;;;;;;;;;;;;7364352;19;19952;-78
2022/12/27 08:29:33;;;;;;;;;;;;;;;;;;7364590;19;20496;-77
2022/12/27 08:31:58;;;;;;;;;;;;;;;;;;7365726;19;20011;-78
2022/12/27 08:34:23;;;;;;;;;;;;;;;;;;7367674;19;20260;-79
2022/12/27 08:36:48;;;;;;;;;;;;;;;;;;7370489;19;20395;-80
2022/12/27 08:39:14;;;;;;;;;;;;;;;;;;7368363;19;19919;-81
2022/12/27 08:41:39;;;;;;;;;;;;;;;;;;7362634;19;19957;-79
2022/12/27 08:44:04;;;;;;;;;;;;;;;;;;7370916;19;20141;-80
2022/12/27 08:46:30;;;;;;;;;;;;;;;;;;7332897;19;19927;-79
2022/12/27 08:48:55;;;;;;;;;;;;;;;;;;7362157;19;19919;-80
2022/12/27 08:51:20;;;;;;;;;;;;;;;;;;7359636;19;20002;-79
2022/12/27 08:53:45;;;;;;;;;;;;;;;;;;7344283;19;19923;-77
2022/12/27 08:56:10;;;;;;;;;;;;;;;;;;7359579;19;19923;-79
2022/12/27 08:58:35;;;;;;;;;;;;;;;;;;7366122;19;21155;-79
2022/12/27 09:01:01;;;;;;;;;;;;;;;;;;7370330;19;19923;-78
2022/12/27 09:03:26;;;;;;;;;;;;;;;;;;7365768;19;20268;-78
2022/12/27 09:05:51;;;;;;;;;;;;;;;;;;7371775;19;19959;-81
2022/12/27 09:08:16;;;;;;;;;;;;;;;;;;7360903;19;20718;-81
2022/12/27 09:10:41;;;;;;;;;;;;;;;;;;7365594;19;19918;-78
2022/12/27 09:13:06;;;;;;;;;;;;;;;;;;7365438;19;20483;-78
2022/12/27 09:15:31;;;;;;;;;;;;;;;;;;7364391;19;19946;-77
2022/12/27 09:17:56;;;;;;;;;;;;;;;;;;7366792;19;19914;-78
2022/12/27 09:20:21;;;;;;;;;;;;;;;;;;7368568;19;19929;-79
2022/12/27 09:22:46;;;;;;;;;;;;;;;;;;7370523;19;19941;-79
2022/12/27 09:25:12;;;;;;;;;;;;;;;;;;7365543;19;19922;-79
2022/12/27 09:27:37;;;;;;;;;;;;;;;;;;7357876;19;20504;-78
2022/12/27 09:30:02;;;;;;;;;;;;;;;;;;7361490;19;19944;-79
2022/12/27 09:32:27;;;;;;;;;;;;;;;;;;7364911;19;20808;-78
2022/12/27 09:34:53;;;;;;;;;;;;;;;;;;7363737;19;19923;-80
2022/12/27 09:37:18;;;;;;;;;;;;;;;;;;7364088;19;19915;-78
2022/12/27 09:39:43;;;;;;;;;;;;;;;;;;7369473;19;19932;-80
2022/12/27 09:42:11;;;;;;;;;;;;;;;;;;7363684;19;19923;-78
2022/12/27 09:44:36;;;;;;;;;;;;;;;;;;7367426;19;20142;-78
2022/12/27 09:47:01;;;;;;;;;;;;;;;;;;7361586;19;19930;-79
2022/12/27 09:49:27;;;;;;;;;;;;;;;;;;7367284;19;19941;-78
2022/12/27 09:51:52;;;;;;;;;;;;;;;;;;7368465;19;19922;-78
2022/12/27 09:54:17;;;;;;;;;;;;;;;;;;7369071;19;19930;-81
2022/12/27 09:56:42;;;;;;;;;;;;;;;;;;7359461;19;19922;-79
2022/12/27 09:59:07;;;;;;;;;;;;;;;;;;7367977;19;19921;-79
2022/12/27 10:01:32;;;;;;;;;;;;;;;;;;7365503;19;19960;-80
2022/12/27 10:03:57;;;;;;;;;;;;;;;;;;7331175;19;19956;-80
2022/12/27 10:06:22;;;;;;;;;;;;;;;;;;7356901;19;19939;-79
2022/12/27 10:08:47;;;;;;;;;;;;;;;;;;7361205;19;19921;-78
2022/12/27 10:11:34;;;;;;;;;;;;;;;;;;7357857;19;20236;-80
2022/12/27 10:13:58;;;;;;;;;;;;;;;;;;7352849;19;20325;-80
2022/12/27 10:16:23;;;;;;;;;;;;;;;;;;7348435;19;20320;-78
2022/12/27 10:18:48;;;;;;;;;;;;;;;;;;7359973;19;20328;-79
2022/12/27 10:21:13;;;;;;;;;;;;;;;;;;7366162;19;19907;-79
2022/12/27 10:23:38;;;;;;;;;;;;;;;;;;7364100;19;20531;-79
2022/12/27 10:26:04;;;;;;;;;;;;;;;;;;7357284;19;19919;-80
2022/12/27 10:28:29;;;;;;;;;;;;;;;;;;7363787;19;19914;-79
2022/12/27 10:30:54;;;;;;;;;;;;;;;;;;7366623;19;19919;-80
2022/12/27 10:33:19;;;;;;;;;;;;;;;;;;7361082;19;19919;-80
2022/12/27 10:35:44;;;;;;;;;;;;;;;;;;7353905;19;20230;-79
2022/12/27 10:38:09;;;;;;;;;;;;;;;;;;7351085;19;19918;-80
2022/12/27 10:40:34;;;;;;;;;;;;;;;;;;7363802;19;19979;-80
2022/12/27 10:42:59;;;;;;;;;;;;;;;;;;7363494;19;20009;-80
2022/12/27 10:45:27;;;;;;;;;;;;;;;;;;7363133;19;19927;-79
2022/12/27 10:47:52;;;;;;;;;;;;;;;;;;7368936;19;19934;-79
2022/12/27 10:50:17;;;;;;;;;;;;;;;;;;7359435;19;19927;-80
2022/12/27 10:52:43;;;;;;;;;;;;;;;;;;7363458;19;19919;-81
2022/12/27 10:55:08;;;;;;;;;;;;;;;;;;7361295;19;19923;-80
2022/12/27 10:57:33;;;;;;;;;;;;;;;;;;7360077;19;20308;-79
2022/12/27 10:59:58;;;;;;;;;;;;;;;;;;7359967;19;19994;-80
2022/12/27 11:02:23;;;;;;;;;;;;;;;;;;7367499;19;19919;-80
2022/12/27 11:04:49;;;;;;;;;;;;;;;;;;7365926;19;19946;-79
2022/12/27 11:07:14;;;;;;;;;;;;;;;;;;7355127;19;19946;-79
2022/12/27 11:09:39;;;;;;;;;;;;;;;;;;7330644;19;19925;-79
2022/12/27 11:12:05;;;;;;;;;;;;;;;;;;7346342;19;20305;-80
2022/12/27 11:14:30;;;;;;;;;;;;;;;;;;7355888;19;19919;-81
2022/12/27 11:16:55;;;;;;;;;;;;;;;;;;7366784;19;20554;-80
2022/12/27 11:19:20;;;;;;;;;;;;;;;;;;7370630;19;19923;-80
2022/12/27 11:21:45;;;;;;;;;;;;;;;;;;7373214;19;19918;-80
2022/12/27 11:24:10;;;;;;;;;;;;;;;;;;7364134;19;20332;-78
2022/12/27 11:26:35;;;;;;;;;;;;;;;;;;7355609;19;19935;-81
2022/12/27 11:29:00;;;;;;;;;;;;;;;;;;7355148;19;20212;-81
2022/12/27 11:31:26;;;;;;;;;;;;;;;;;;7359439;19;19918;-80
2022/12/27 11:33:51;;;;;;;;;;;;;;;;;;7370563;19;19927;-79
2022/12/27 11:36:16;;;;;;;;;;;;;;;;;;7372335;19;20316;-80
2022/12/27 11:38:41;;;;;;;;;;;;;;;;;;7358979;19;19974;-80
2022/12/27 11:41:06;;;;;;;;;;;;;;;;;;7359804;19;20320;-79
2022/12/27 11:43:31;;;;;;;;;;;;;;;;;;7361504;19;20455;-80
2022/12/27 11:45:57;;;;;;;;;;;;;;;;;;7370306;19;19923;-79
2022/12/27 11:48:22;;;;;;;;;;;;;;;;;;7368548;19;19982;-81
2022/12/27 11:50:47;;;;;;;;;;;;;;;;;;7368995;19;19915;-79
2022/12/27 11:53:12;;;;;;;;;;;;;;;;;;7374754;19;19930;-80
2022/12/27 11:55:38;;;;;;;;;;;;;;;;;;7333801;19;19922;-79
2022/12/27 11:58:03;;;;;;;;;;;;;;;;;;7357365;19;19915;-80
2022/12/27 12:00:30;;;;;;;;;;;;;;;;;;7337114;19;20354;-79
2022/12/27 12:02:55;;;;;;;;;;;;;;;;;;7343632;19;19918;-81
2022/12/27 12:05:21;;;;;;;;;;;;;;;;;;7352113;19;19927;-81
2022/12/27 12:07:46;;;;;;;;;;;;;;;;;;7356644;19;19962;-78
2022/12/27 12:10:11;;;;;;;;;;;;;;;;;;7366541;19;20329;-78
2022/12/27 12:12:37;;;;;;;;;;;;;;;;;;7368739;19;19922;-79
2022/12/27 12:15:02;;;;;;;;;;;;;;;;;;7372718;19;19915;-79
2022/12/27 12:17:27;;;;;;;;;;;;;;;;;;7352868;19;19918;-80
2022/12/27 12:19:52;;;;;;;;;;;;;;;;;;7367180;19;19934;-82
2022/12/27 12:22:18;;;;;;;;;;;;;;;;;;7369229;19;19919;-82
2022/12/27 12:24:43;;;;;;;;;;;;;;;;;;7365317;19;20505;-80
2022/12/27 12:27:08;;;;;;;;;;;;;;;;;;7351861;19;19907;-81
2022/12/27 12:29:33;;;;;;;;;;;;;;;;;;7368956;19;20286;-83
2022/12/27 12:31:59;;;;;;;;;;;;;;;;;;7364350;19;19950;-81
2022/12/27 12:34:24;;;;;;;;;;;;;;;;;;7375169;19;20255;-82
2022/12/27 12:36:49;;;;;;;;;;;;;;;;;;7368201;19;20254;-83
2022/12/27 12:39:14;;;;;;;;;;;;;;;;;;7363505;19;19918;-83
2022/12/27 20:49:47;;;;;;;;;;;;;;;;;;7246369;19;20775;-77
2022/12/27 20:52:13;;;;;;;;;;;;;;;;;;7318553;19;20264;-76
2022/12/27 20:54:38;;;;;;;;;;;;;;;;;;7357868;19;19933;-76
2022/12/27 20:57:03;;;;;;;;;;;;;;;;;;7352732;19;19930;-76
2022/12/27 20:59:28;;;;;;;;;;;;;;;;;;7364316;19;19936;-77
2022/12/27 21:01:54;;;;;;;;;;;;;;;;;;7365206;19;20003;-76
2022/12/27 21:04:19;;;;;;;;;;;;;;;;;;7351249;19;20622;-76
2022/12/27 21:06:44;;;;;;;;;;;;;;;;;;7347073;19;20133;-77
2022/12/27 21:09:09;;;;;;;;;;;;;;;;;;7357350;19;20277;-77
2022/12/27 21:11:34;;;;;;;;;;;;;;;;;;7368318;19;19926;-78
2022/12/27 21:13:59;;;;;;;;;;;;;;;;;;7362981;19;19914;-78
2022/12/27 21:16:24;;;;;;;;;;;;;;;;;;7338934;19;20329;-77
2022/12/27 21:18:50;;;;;;;;;;;;;;;;;;7328401;19;20253;-76
2022/12/27 21:21:15;;;;;;;;;;;;;;;;;;7360085;19;19950;-77
2022/12/27 21:23:42;;;;;;;;;;;;;;;;;;7344344;19;19923;-78
2022/12/27 21:26:07;;;;;;;;;;;;;;;;;;7358103;19;19919;-77
2022/12/27 21:28:32;;;;;;;;;;;;;;;;;;7363857;19;19931;-79
2022/12/27 21:30:57;;;;;;;;;;;;;;;;;;7361113;19;19915;-77
2022/12/27 21:33:23;;;;;;;;;;;;;;;;;;7351303;19;20731;-79
2022/12/27 21:35:48;;;;;;;;;;;;;;;;;;7364986;19;19927;-78
2022/12/27 21:38:13;;;;;;;;;;;;;;;;;;7362608;19;20236;-77
2022/12/27 21:40:38;;;;;;;;;;;;;;;;;;7355618;19;19931;-76
2022/12/27 21:43:03;;;;;;;;;;;;;;;;;;7354005;19;19930;-78
2022/12/27 21:45:28;;;;;;;;;;;;;;;;;;7364013;19;19926;-77
2022/12/27 21:47:53;;;;;;;;;;;;;;;;;;7356777;19;19927;-77
2022/12/27 21:50:18;;;;;;;;;;;;;;;;;;7348314;19;20406;-77
2022/12/27 21:52:43;;;;;;;;;;;;;;;;;;7364366;19;19918;-78
2022/12/27 21:55:09;;;;;;;;;;;;;;;;;;7351902;19;19918;-80
2022/12/27 21:57:34;;;;;;;;;;;;;;;;;;7357360;19;20308;-78
2022/12/27 21:59:59;;;;;;;;;;;;;;;;;;7329100;19;19959;-82
2022/12/27 22:02:24;;;;;;;;;;;;;;;;;;7344677;19;20292;-82
2022/12/27 22:04:49;;;;;;;;;;;;;;;;;;7361483;19;19924;-84
2022/12/27 22:07:14;;;;;;;;;;;;;;;;;;7345270;19;19919;-81
2022/12/27 22:09:40;;;;;;;;;;;;;;;;;;7359501;19;19921;-81
2022/12/27 22:12:06;;;;;;;;;;;;;;;;;;7353139;19;20548;-80
2022/12/27 22:14:31;;;;;;;;;;;;;;;;;;7353201;19;19919;-80
2022/12/27 22:16:58;;;;;;;;;;;;;;;;;;7357449;19;19926;-81
2022/12/27 22:19:23;;;;;;;;;;;;;;;;;;7334283;19;19919;-81
2022/12/27 22:21:50;;;;;;;;;;;;;;;;;;7334285;19;19936;-79
2022/12/27 22:24:18;;;;;;;;;;;;;;;;;;7344268;19;19927;-81
2022/12/27 22:26:43;;;;;;;;;;;;;;;;;;7361592;19;19918;-79
2022/12/27 22:29:08;;;;;;;;;;;;;;;;;;7360890;19;19925;-79
2022/12/27 22:31:36;;;;;;;;;;;;;;;;;;7364639;19;20025;-81
2022/12/27 22:34:02;;;;;;;;;;;;;;;;;;7358524;19;19922;-81
2022/12/27 22:36:27;;;;;;;;;;;;;;;;;;7357836;19;19952;-80
2022/12/27 22:38:53;;;;;;;;;;;;;;;;;;7351990;19;19922;-81
2022/12/27 22:41:19;;;;;;;;;;;;;;;;;;7353182;19;20019;-78
2022/12/27 22:43:44;;;;;;;;;;;;;;;;;;7345024;19;19991;-80
2022/12/27 22:46:09;;;;;;;;;;;;;;;;;;7357735;19;20441;-80
2022/12/27 22:48:36;;;;;;;;;;;;;;;;;;7349454;19;19919;-78
2022/12/27 22:51:01;;;;;;;;;;;;;;;;;;7352593;19;19976;-79
2022/12/27 22:53:26;;;;;;;;;;;;;;;;;;7363362;19;19921;-79
2022/12/27 22:55:51;;;;;;;;;;;;;;;;;;7353182;19;19919;-79
2022/12/27 23:54:10;;;;;;;;;;;;;;;;;;7363685;19;20013;-78
2022/12/27 23:56:35;;;;;;;;;;;;;;;;;;7371346;19;20495;-77
2022/12/27 23:59:00;;;;;;;;;;;;;;;;;;7359917;19;19923;-76
